Aviatická pouť nabídne gripeny, akrobacii nebo vzácná historická letadla. Přiletí i skokan z vesmíru Felix Baumgartner.

28.05.24 Již o tomto víkendu 1. a 2. června proběhne na pardubickém letišti dvaatřicátý ročník Aviatické pouti, akce pro celou rodinu. Na návštěvníky čeká pestrý letecký i pozemní program s mnoha zábavnými aktivitami pro děti i dospělé. Máme pro vás šest zajímavostí, které byste si neměli nechat ujít. Celý článek

Z Českých Budějovic se bude přes zimu létat do egyptské Hurghady

10.05.24 Cestovní kancelář Čedok přidává na zimní sezonu první destinaci z Českých Budějovic. Z jihočeského letiště začne létat ve spolupráci s leteckou společností Corendon Airlines do egyptské Hurghady. Cestující se proletí na dovolenou k Rudému moři na palubě Boeingu 737-800 s kapacitou pro 189 cestujících v ekonomické třídě. Letadla budou startovat každou neděli od konce prosince, provoz plánuje cestovní kancelář prodloužit až do května. Celý článek

Zprávy

aktualizováno

13.06.24 Celý článek

Všechny zprávy    

Všechny články

Kurzy

Kalendář akcí

Austro Control Exam PPL / ATPL
13.06.24 Flying Academy Beranových 130 Praha
ICAO English Exam / Zkouška - každý pátek v měsíci
14.06.24 Online Worldwide Campus or Flying Academy Beranových 130 Praha
ICAO English Exam / Zkouška - každý pátek v měsíci
21.06.24 Online Worldwide Campus or Flying Academy Beranových 130 Praha
ICAO English Exam / Zkouška - každý pátek v měsíci
28.06.24 Online Worldwide Campus or Flying Academy Beranových 130 Praha
ICAO English Exam / Zkouška - každý pátek v měsíci
05.07.24 Online Worldwide Campus or Flying Academy Beranových 130 Praha

Všechny akce

Zeptejte se odborníka

Zkušený personál jedné z největších leteckých škol Flying Academy je připraven Vám pomoci s jakýmikoli otázkami týkajícími se letectví.

Zeptejte se

Newsletter

Přihlaste se k odběru novinek.

Aktuální počasí

LKKB
LKKB 131700Z 36007KT 330V030 9999 FEW029 BKN082 14/07 Q1017 NOSIG

LKKV
LKKV 131700Z 30005KT 260V330 9999 FEW040 15/02 Q1017

LKMT
LKMT 131700Z 04008KT CAVOK 16/08 Q1016 NOSIG

LKPR
LKPR 131700Z 05006KT 350V070 CAVOK 14/07 Q1017 NOSIG

LKTB
LKTB 131700Z 03004KT 350V070 CAVOK 18/08 Q1016 NOSIG

Briefing

Kurzy měn

AUD AUD 15.22 Kč
EUR EUR 24.70 Kč
GBP GBP 29.24 Kč
HUF HUF 6.23 Kč
CHF CHF 25.55 Kč
USD USD 22.90 Kč